createdAt,value
2023-05-19T00:02:20.907Z,99.90
2023-05-19T00:04:49.491Z,99.90
2023-05-19T00:07:19.532Z,99.90
2023-05-19T00:09:46.429Z,99.90
2023-05-19T00:12:13.688Z,99.90
2023-05-19T00:14:40.675Z,99.90
2023-05-19T00:17:07.908Z,99.90
2023-05-19T00:19:34.616Z,99.90
2023-05-19T00:22:01.313Z,99.90
2023-05-19T00:24:28.157Z,99.90
2023-05-19T00:26:54.856Z,99.90
2023-05-19T00:29:21.598Z,99.90
2023-05-19T00:31:48.351Z,99.90
2023-05-19T00:34:15.144Z,99.90
2023-05-19T00:36:42.042Z,99.90
2023-05-19T00:39:08.743Z,99.90
2023-05-19T00:41:35.515Z,99.90
2023-05-19T00:44:02.246Z,99.90
2023-05-19T00:46:30.298Z,99.90
2023-05-19T00:48:57.013Z,99.90
2023-05-19T00:51:24.363Z,99.90
2023-05-19T00:53:52.058Z,99.90
2023-05-19T00:56:18.880Z,99.90
2023-05-19T00:58:45.651Z,99.90
2023-05-19T01:01:16.910Z,99.90
2023-05-19T01:03:43.843Z,99.90
2023-05-19T01:06:12.410Z,99.90
2023-05-19T01:08:39.399Z,99.90
2023-05-19T01:11:06.893Z,99.90
2023-05-19T01:13:34.481Z,99.90
2023-05-19T01:16:32.404Z,99.90
2023-05-19T01:19:05.388Z,99.90
2023-05-19T01:21:53.691Z,99.90
2023-05-19T01:24:22.834Z,99.90
2023-05-19T01:27:12.463Z,99.90
2023-05-19T01:29:43.310Z,99.90
2023-05-19T01:32:11.741Z,99.90
2023-05-19T01:34:42.319Z,99.90
2023-05-19T01:37:09.366Z,99.90
2023-05-19T01:39:36.409Z,99.90
2023-05-19T01:42:03.990Z,99.90
2023-05-19T01:44:31.120Z,99.90
2023-05-19T01:46:58.266Z,99.90
2023-05-19T01:49:25.014Z,99.90
2023-05-19T01:51:52.646Z,99.90
2023-05-19T01:54:19.914Z,99.90
2023-05-19T01:56:57.956Z,99.90
2023-05-19T01:59:47.705Z,99.90
2023-05-19T02:02:26.665Z,99.90
2023-05-19T02:05:00.390Z,99.90
2023-05-19T02:07:40.083Z,99.90
2023-05-19T02:10:11.158Z,99.90
2023-05-19T02:12:40.515Z,99.90
2023-05-19T02:15:13.940Z,99.90
2023-05-19T02:17:42.337Z,99.90
2023-05-19T02:20:10.300Z,99.90
2023-05-19T02:22:37.447Z,99.90
2023-05-19T02:25:04.423Z,99.90
2023-05-19T02:27:33.886Z,99.90
2023-05-19T02:30:06.169Z,99.90
2023-05-19T02:32:32.987Z,99.90
2023-05-19T02:35:00.657Z,99.90
2023-05-19T02:37:31.058Z,99.90
2023-05-19T02:39:57.791Z,99.90
2023-05-19T02:42:24.741Z,99.90
2023-05-19T02:44:52.549Z,99.90
2023-05-19T02:47:19.293Z,99.90
2023-05-19T02:49:46.172Z,99.90
2023-05-19T02:52:12.936Z,99.90
2023-05-19T02:54:40.225Z,99.90
2023-05-19T02:57:07.328Z,99.90
2023-05-19T02:59:34.107Z,99.90
2023-05-19T03:02:01.791Z,99.90
2023-05-19T03:04:30.047Z,99.90
2023-05-19T03:06:57.703Z,99.90
2023-05-19T03:09:24.597Z,99.90
2023-05-19T03:11:51.675Z,99.90
2023-05-19T03:14:18.943Z,99.90
2023-05-19T03:16:46.039Z,99.90
2023-05-19T03:19:13.073Z,99.90
2023-05-19T03:21:39.906Z,99.90
2023-05-19T03:24:07.438Z,99.90
2023-05-19T03:26:35.124Z,99.90
2023-05-19T03:29:02.267Z,99.90
2023-05-19T03:31:32.145Z,99.90
2023-05-19T03:33:59.905Z,99.90
2023-05-19T03:36:31.966Z,99.90
2023-05-19T03:38:59.904Z,99.90
2023-05-19T03:41:26.969Z,99.90
2023-05-19T03:43:53.961Z,99.90
2023-05-19T03:46:21.035Z,99.90
2023-05-19T03:49:06.571Z,99.90
2023-05-19T03:51:52.227Z,99.90
2023-05-19T03:54:30.704Z,99.90
2023-05-19T03:56:57.710Z,99.90
2023-05-19T03:59:24.674Z,99.90
2023-05-19T04:01:51.649Z,99.90
2023-05-19T04:04:18.885Z,99.90
2023-05-19T04:06:45.941Z,99.90
2023-05-19T04:09:13.494Z,99.90
2023-05-19T04:11:40.953Z,99.90
2023-05-19T04:14:08.047Z,99.90
2023-05-19T04:16:36.135Z,99.90
2023-05-19T04:19:03.336Z,99.90
2023-05-19T04:21:31.950Z,99.90
2023-05-19T04:24:00.121Z,99.90
2023-05-19T04:26:30.911Z,99.90
2023-05-19T04:28:58.099Z,99.90
2023-05-19T04:31:25.196Z,99.90
2023-05-19T04:33:53.705Z,99.90
2023-05-19T04:36:22.128Z,99.90
2023-05-19T04:38:55.100Z,99.90
2023-05-19T04:41:25.412Z,99.90
2023-05-19T04:43:52.118Z,99.90
2023-05-19T04:46:24.307Z,99.90
2023-05-19T04:48:53.301Z,99.90
2023-05-19T04:51:20.370Z,99.90
2023-05-19T04:53:47.201Z,99.90
2023-05-19T04:56:15.367Z,99.90
2023-05-19T04:58:44.914Z,99.90
2023-05-19T05:01:13.943Z,99.90
2023-05-19T05:03:41.626Z,99.90
2023-05-19T05:06:09.088Z,99.90
2023-05-19T05:08:37.340Z,99.90
2023-05-19T05:11:04.346Z,99.90
2023-05-19T05:13:32.072Z,99.90
2023-05-19T05:16:00.328Z,99.90
2023-05-19T05:18:27.652Z,99.90
2023-05-19T05:20:55.035Z,99.90
2023-05-19T05:23:21.965Z,99.90
2023-05-19T05:25:50.609Z,99.90
2023-05-19T05:28:18.939Z,99.90
2023-05-19T05:30:47.396Z,99.90
2023-05-19T05:33:15.506Z,99.90
2023-05-19T05:35:42.592Z,99.90
2023-05-19T05:38:11.821Z,99.90
2023-05-19T05:40:40.147Z,99.90
2023-05-19T05:43:08.115Z,99.90
2023-05-19T05:45:41.074Z,99.90
2023-05-19T05:48:08.842Z,99.90
2023-05-19T05:50:36.100Z,99.90
2023-05-19T05:53:02.997Z,99.90
2023-05-19T05:55:40.537Z,99.90
2023-05-19T06:00:57.977Z,99.90
2023-05-19T06:03:41.701Z,99.90
2023-05-19T06:06:10.735Z,99.90
2023-05-19T06:08:37.600Z,99.90
2023-05-19T06:11:10.594Z,99.90
2023-05-19T06:13:41.157Z,99.90
2023-05-19T06:16:10.664Z,99.90
2023-05-19T06:18:44.225Z,99.90
2023-05-19T06:21:13.175Z,99.90
2023-05-19T06:23:41.002Z,99.90
2023-05-19T06:26:09.575Z,99.90
2023-05-19T06:28:36.293Z,99.90
2023-05-19T06:31:04.112Z,99.90
2023-05-19T06:33:45.736Z,99.90
2023-05-19T06:36:13.756Z,99.90
2023-05-19T06:38:43.028Z,99.90
2023-05-19T06:41:11.174Z,99.90
2023-05-19T06:43:38.258Z,99.90
2023-05-19T06:46:05.336Z,99.90
2023-05-19T06:48:33.554Z,99.90
2023-05-19T06:51:00.887Z,99.90
2023-05-19T06:53:28.042Z,99.90
2023-05-19T06:55:59.787Z,99.90
2023-05-19T06:58:28.800Z,99.90
2023-05-19T07:00:56.802Z,99.90
2023-05-19T07:03:27.975Z,99.90
2023-05-19T07:05:55.896Z,99.90
2023-05-19T07:08:23.246Z,99.90
2023-05-19T07:10:50.047Z,99.70
2023-05-19T07:13:17.917Z,99.00
2023-05-19T07:15:45.288Z,98.80
2023-05-19T07:18:13.182Z,99.00
2023-05-19T07:20:40.966Z,98.30
2023-05-19T07:23:08.430Z,98.50
2023-05-19T07:25:36.596Z,98.50
2023-05-19T07:28:04.252Z,98.50
2023-05-19T07:30:31.642Z,99.00
2023-05-19T07:32:58.759Z,98.70
2023-05-19T07:35:26.606Z,98.70
2023-05-19T07:37:53.802Z,99.40
2023-05-19T07:40:20.993Z,99.10
2023-05-19T07:42:49.532Z,99.00
2023-05-19T07:45:16.511Z,99.00
2023-05-19T07:47:43.725Z,98.10
2023-05-19T07:50:11.485Z,98.30
2023-05-19T07:52:38.738Z,98.40
2023-05-19T07:55:06.104Z,98.30
2023-05-19T07:57:32.937Z,98.30
2023-05-19T08:00:00.006Z,98.50
2023-05-19T08:02:27.561Z,97.50
2023-05-19T08:04:54.944Z,97.60
2023-05-19T08:07:22.239Z,97.30
2023-05-19T08:09:49.564Z,97.00
2023-05-19T08:12:16.940Z,96.70
2023-05-19T08:14:43.752Z,97.10
2023-05-19T08:17:11.357Z,96.90
2023-05-19T08:19:38.716Z,95.90
2023-05-19T08:22:06.221Z,95.70
2023-05-19T08:24:33.819Z,96.20
2023-05-19T08:27:00.628Z,96.50
2023-05-19T08:29:27.632Z,96.80
2023-05-19T08:31:54.678Z,96.40
2023-05-19T08:34:22.644Z,96.90
2023-05-19T08:36:50.227Z,97.10
2023-05-19T08:39:18.953Z,96.90
2023-05-19T08:41:46.317Z,96.00
2023-05-19T08:44:13.048Z,95.70
2023-05-19T08:46:41.153Z,95.00
2023-05-19T08:49:13.788Z,95.70
2023-05-19T08:52:13.827Z,95.30
2023-05-19T08:54:51.056Z,95.70
2023-05-19T08:57:18.546Z,95.20
2023-05-19T08:59:45.910Z,94.40
2023-05-19T09:02:13.962Z,94.60
2023-05-19T09:04:40.810Z,94.10
2023-05-19T09:07:09.342Z,94.00
2023-05-19T09:09:36.915Z,93.70
2023-05-19T09:12:04.964Z,93.40
2023-05-19T09:14:32.279Z,93.50
2023-05-19T09:16:59.401Z,93.70
2023-05-19T09:19:29.376Z,93.90
2023-05-19T09:22:01.078Z,93.70
2023-05-19T09:24:27.942Z,93.30
2023-05-19T09:27:00.021Z,93.40
2023-05-19T09:29:27.529Z,93.10
2023-05-19T09:31:56.316Z,92.80
2023-05-19T09:34:24.902Z,92.90
2023-05-19T09:36:53.940Z,92.70
2023-05-19T09:39:22.132Z,91.80
2023-05-19T09:41:58.944Z,91.00
2023-05-19T09:44:30.717Z,90.70
2023-05-19T09:46:58.574Z,90.60
2023-05-19T09:49:30.165Z,90.50
2023-05-19T09:51:58.057Z,90.20
2023-05-19T09:54:27.681Z,90.90
2023-05-19T09:57:01.711Z,90.50
2023-05-19T09:59:32.416Z,90.00
2023-05-19T10:02:01.027Z,91.40
2023-05-19T10:04:29.462Z,90.20
2023-05-19T10:07:01.962Z,88.90
2023-05-19T10:09:29.403Z,90.30
2023-05-19T10:11:57.547Z,89.70
2023-05-19T10:14:28.378Z,89.60
2023-05-19T10:16:56.700Z,87.60
2023-05-19T10:19:25.139Z,85.60
2023-05-19T10:21:52.738Z,86.90
2023-05-19T10:24:19.878Z,84.80
2023-05-19T10:27:02.584Z,83.90
2023-05-19T10:29:31.735Z,86.00
2023-05-19T10:32:01.366Z,85.40
2023-05-19T10:34:40.785Z,85.30
2023-05-19T10:37:24.965Z,82.40
2023-05-19T10:39:52.725Z,85.00
2023-05-19T10:42:27.863Z,81.40
2023-05-19T10:45:20.678Z,85.40
2023-05-19T10:47:53.758Z,83.30
2023-05-19T10:50:20.910Z,85.70
2023-05-19T10:52:54.141Z,82.70
2023-05-19T10:55:47.862Z,81.90
2023-05-19T10:58:15.436Z,83.50
2023-05-19T11:00:42.501Z,81.90
2023-05-19T11:03:16.201Z,83.00
2023-05-19T11:05:46.693Z,82.50
2023-05-19T11:08:14.184Z,83.20
2023-05-19T11:10:46.340Z,82.00
2023-05-19T11:13:22.762Z,82.00
2023-05-19T11:15:50.231Z,80.20
2023-05-19T11:18:19.511Z,82.60
2023-05-19T11:20:46.384Z,82.90
2023-05-19T11:23:20.157Z,81.50
2023-05-19T11:25:51.706Z,82.50
2023-05-19T11:28:25.769Z,79.50
2023-05-19T11:30:54.782Z,82.10
2023-05-19T11:33:27.379Z,82.20
2023-05-19T11:35:58.404Z,81.50
2023-05-19T11:38:26.231Z,80.10
2023-05-19T11:40:53.654Z,79.50
2023-05-19T11:43:23.616Z,78.30
2023-05-19T11:45:50.752Z,79.60
2023-05-19T11:48:18.252Z,79.50
2023-05-19T11:50:45.061Z,81.50
2023-05-19T11:53:14.653Z,80.70
2023-05-19T11:55:48.235Z,79.20
2023-05-19T11:58:16.088Z,80.00
2023-05-19T12:00:45.864Z,80.00
2023-05-19T12:03:13.444Z,79.30
2023-05-19T12:05:45.891Z,80.80
2023-05-19T12:08:13.202Z,80.70
2023-05-19T12:10:40.039Z,79.60
2023-05-19T12:13:11.020Z,80.50
2023-05-19T12:15:39.429Z,80.50
2023-05-19T12:18:06.877Z,79.10
2023-05-19T12:20:35.814Z,80.90
2023-05-19T12:23:04.492Z,82.80
2023-05-19T12:25:32.474Z,82.90
2023-05-19T12:28:00.758Z,83.20
2023-05-19T12:30:28.762Z,84.30
2023-05-19T12:32:59.004Z,84.30
2023-05-19T12:35:33.848Z,86.00
2023-05-19T12:38:05.141Z,86.90
2023-05-19T12:40:34.510Z,86.60
2023-05-19T12:43:01.523Z,86.20
2023-05-19T12:45:28.804Z,86.30
2023-05-19T12:47:56.012Z,85.70
2023-05-19T12:50:29.901Z,86.20
2023-05-19T12:52:58.434Z,87.40
2023-05-19T12:55:25.834Z,86.70
2023-05-19T12:57:56.611Z,87.10
2023-05-19T13:00:31.344Z,86.70
2023-05-19T13:03:10.000Z,85.50
2023-05-19T13:05:40.709Z,88.20
2023-05-19T13:08:09.659Z,87.90
2023-05-19T13:10:38.152Z,87.40
2023-05-19T13:13:05.117Z,87.00
2023-05-19T13:15:37.989Z,88.40
2023-05-19T13:18:09.100Z,88.30
2023-05-19T13:20:36.746Z,88.00
2023-05-19T13:23:03.888Z,87.40
2023-05-19T13:25:31.592Z,87.70
2023-05-19T13:28:01.181Z,88.00
2023-05-19T13:30:28.532Z,87.70
2023-05-19T13:32:55.914Z,88.20
2023-05-19T13:35:23.069Z,88.10
2023-05-19T13:37:50.207Z,88.80
2023-05-19T13:40:17.682Z,88.20
2023-05-19T13:42:45.321Z,88.30
2023-05-19T13:45:12.767Z,87.90
2023-05-19T13:47:39.552Z,89.10
2023-05-19T13:50:06.981Z,88.90
2023-05-19T13:52:34.008Z,88.60
2023-05-19T13:55:01.219Z,89.60
2023-05-19T13:57:28.601Z,88.20
2023-05-19T14:00:02.557Z,89.10
2023-05-19T14:02:39.791Z,89.90
2023-05-19T14:05:08.604Z,88.30
2023-05-19T14:07:35.914Z,88.70
2023-05-19T14:10:03.896Z,88.00
2023-05-19T14:12:41.490Z,88.90
2023-05-19T14:15:14.757Z,89.00
2023-05-19T14:17:42.050Z,89.90
2023-05-19T14:20:09.903Z,90.00
2023-05-19T14:22:37.407Z,88.80
2023-05-19T14:25:04.624Z,88.40
2023-05-19T14:27:31.379Z,87.70
2023-05-19T14:29:58.363Z,89.00
2023-05-19T14:32:28.657Z,88.50
2023-05-19T14:34:57.234Z,89.20
2023-05-19T14:37:26.869Z,88.40
2023-05-19T14:39:54.000Z,88.00
2023-05-19T14:42:22.025Z,89.10
2023-05-19T14:44:49.424Z,88.40
2023-05-19T14:47:19.209Z,88.40
2023-05-19T14:49:46.071Z,88.60
2023-05-19T14:52:13.574Z,89.30
2023-05-19T14:54:40.381Z,89.20
2023-05-19T14:57:08.266Z,89.40
2023-05-19T14:59:38.579Z,88.90
2023-05-19T15:02:06.163Z,89.60
2023-05-19T15:04:32.937Z,89.60
2023-05-19T15:07:09.863Z,89.90
2023-05-19T15:09:38.016Z,90.00
2023-05-19T15:12:05.138Z,90.60
2023-05-19T15:14:32.163Z,90.80
2023-05-19T15:16:59.414Z,90.20
2023-05-19T15:19:26.629Z,90.30
2023-05-19T15:21:53.922Z,90.40
2023-05-19T15:24:20.900Z,90.30
2023-05-19T15:26:47.686Z,90.10
2023-05-19T15:29:14.493Z,90.20
2023-05-19T15:31:41.522Z,90.10
2023-05-19T15:34:09.071Z,90.70
2023-05-19T15:36:36.167Z,90.80
2023-05-19T15:39:03.742Z,90.90
2023-05-19T15:41:31.016Z,90.80
2023-05-19T15:44:00.708Z,90.60
2023-05-19T15:46:28.432Z,91.00
2023-05-19T15:48:55.464Z,90.90
2023-05-19T15:51:23.038Z,90.60
2023-05-19T15:53:50.054Z,90.50
2023-05-19T15:56:19.285Z,90.70
2023-05-19T15:58:47.264Z,90.90
2023-05-19T16:01:15.007Z,91.40
2023-05-19T16:03:41.932Z,91.10
2023-05-19T16:06:09.148Z,91.40
2023-05-19T16:08:36.645Z,90.90
2023-05-19T16:11:05.405Z,90.90
2023-05-19T16:13:33.763Z,90.90
2023-05-19T16:16:01.174Z,90.80
2023-05-19T16:18:29.672Z,91.90
2023-05-19T16:20:56.611Z,91.60
2023-05-19T16:23:24.936Z,91.90
2023-05-19T16:25:52.516Z,92.00
2023-05-19T16:28:22.373Z,91.80
2023-05-19T16:30:50.806Z,91.10
2023-05-19T16:33:17.795Z,91.60
2023-05-19T16:35:45.591Z,91.10
2023-05-19T16:38:12.394Z,90.90
2023-05-19T16:40:39.526Z,91.10
2023-05-19T16:43:06.231Z,91.40
2023-05-19T16:45:33.278Z,91.40
2023-05-19T16:48:00.683Z,91.70
2023-05-19T16:50:27.721Z,92.00
2023-05-19T16:52:55.068Z,91.60
2023-05-19T16:55:22.665Z,91.90
2023-05-19T16:57:49.737Z,92.00
2023-05-19T17:00:17.434Z,92.10
2023-05-19T17:02:44.296Z,92.40
2023-05-19T17:05:11.693Z,91.50
2023-05-19T17:07:39.065Z,91.50
2023-05-19T17:10:07.683Z,91.30
2023-05-19T17:12:36.902Z,91.40
2023-05-19T17:15:04.002Z,91.40
2023-05-19T17:17:31.335Z,91.40
2023-05-19T17:20:00.049Z,91.50
2023-05-19T17:22:28.262Z,91.50
2023-05-19T17:24:57.622Z,91.70
2023-05-19T17:27:25.027Z,91.80
2023-05-19T17:29:52.224Z,92.00
2023-05-19T17:32:22.072Z,91.90
2023-05-19T17:34:49.508Z,92.30
2023-05-19T17:37:19.047Z,92.20
2023-05-19T17:39:46.425Z,92.60
2023-05-19T17:42:13.274Z,91.70
2023-05-19T17:44:41.303Z,92.10
2023-05-19T17:47:08.747Z,91.90
2023-05-19T17:49:35.994Z,92.10
2023-05-19T17:52:03.295Z,92.10
2023-05-19T17:54:31.651Z,91.90
2023-05-19T17:56:59.178Z,92.20
2023-05-19T17:59:27.063Z,92.40
2023-05-19T18:01:55.345Z,92.60
2023-05-19T18:04:22.356Z,92.40
2023-05-19T18:06:49.115Z,92.50
2023-05-19T18:09:16.129Z,92.60
2023-05-19T18:11:43.279Z,92.90
2023-05-19T18:14:10.480Z,92.60
2023-05-19T18:16:37.400Z,92.80
2023-05-19T18:19:04.923Z,92.70
2023-05-19T18:21:32.461Z,92.80
2023-05-19T18:24:02.932Z,93.00
2023-05-19T18:26:31.111Z,92.80
2023-05-19T18:29:02.595Z,92.70
2023-05-19T18:31:29.670Z,93.10
2023-05-19T18:33:56.749Z,92.90
2023-05-19T18:36:23.792Z,93.10
2023-05-19T18:38:50.803Z,93.10
2023-05-19T18:41:17.887Z,93.10
2023-05-19T18:43:44.878Z,93.30
2023-05-19T18:46:13.750Z,93.30
2023-05-19T18:48:40.728Z,93.30
2023-05-19T18:51:07.728Z,93.30
2023-05-19T18:53:35.081Z,93.40
2023-05-19T18:56:03.789Z,93.40
2023-05-19T18:58:31.576Z,93.50
2023-05-19T19:00:58.530Z,93.60
2023-05-19T19:03:26.643Z,93.80
2023-05-19T19:05:59.811Z,93.70
2023-05-19T19:08:26.939Z,93.70
2023-05-19T19:10:59.324Z,93.80
2023-05-19T19:13:26.501Z,93.90
2023-05-19T19:15:54.265Z,93.90
2023-05-19T19:18:21.694Z,94.10
2023-05-19T19:20:49.002Z,94.20
2023-05-19T19:23:18.018Z,94.00
2023-05-19T19:25:44.958Z,93.90
2023-05-19T19:28:12.219Z,94.00
2023-05-19T19:30:39.506Z,94.00
2023-05-19T19:33:06.976Z,93.90
2023-05-19T19:35:33.907Z,94.00
2023-05-19T19:38:01.000Z,94.00
2023-05-19T19:40:29.225Z,94.10
2023-05-19T19:42:56.182Z,94.20
2023-05-19T19:45:23.163Z,94.60
2023-05-19T19:47:51.898Z,94.50
2023-05-19T19:50:19.054Z,94.50
2023-05-19T19:52:46.024Z,94.60
2023-05-19T19:55:12.981Z,94.60
2023-05-19T19:57:40.459Z,94.50
2023-05-19T20:00:08.555Z,94.50
2023-05-19T20:02:41.073Z,94.70
2023-05-19T20:05:12.909Z,94.50
2023-05-19T20:07:39.737Z,94.60
2023-05-19T20:10:06.830Z,94.60
2023-05-19T20:12:34.180Z,94.50
2023-05-19T20:15:01.445Z,94.70
2023-05-19T20:17:28.184Z,94.60
2023-05-19T20:19:55.207Z,94.90
2023-05-19T20:22:22.219Z,95.10
2023-05-19T20:24:50.586Z,95.40
2023-05-19T20:27:17.552Z,95.20
2023-05-19T20:29:45.438Z,95.30
2023-05-19T20:32:12.665Z,95.50
2023-05-19T20:34:39.581Z,95.50
2023-05-19T20:37:07.066Z,95.60
2023-05-19T20:39:34.404Z,95.50
2023-05-19T20:42:01.181Z,95.50
2023-05-19T20:44:28.291Z,96.00
2023-05-19T20:46:55.318Z,96.00
2023-05-19T20:49:22.268Z,95.80
2023-05-19T20:51:49.318Z,95.70
2023-05-19T20:54:16.950Z,95.70
2023-05-19T20:56:43.951Z,95.70
2023-05-19T20:59:10.966Z,95.90
2023-05-19T21:01:38.832Z,96.10
2023-05-19T21:04:07.960Z,96.20
2023-05-19T21:06:35.727Z,97.20
2023-05-19T21:09:05.083Z,97.00
2023-05-19T21:11:32.464Z,97.00
2023-05-19T21:14:01.575Z,97.00
2023-05-19T21:16:28.454Z,96.80
2023-05-19T21:18:55.521Z,97.10
2023-05-19T21:21:22.348Z,97.00
2023-05-19T21:23:50.084Z,97.70
2023-05-19T21:26:16.863Z,98.20
2023-05-19T21:28:43.982Z,98.20
2023-05-19T21:31:11.292Z,98.70
2023-05-19T21:33:38.696Z,98.60
2023-05-19T21:36:06.068Z,98.50
2023-05-19T21:38:33.447Z,98.50
2023-05-19T21:41:00.795Z,97.90
2023-05-19T21:43:27.570Z,97.70
2023-05-19T21:45:54.315Z,97.30
2023-05-19T21:48:21.830Z,97.30
2023-05-19T21:50:55.380Z,97.30
2023-05-19T21:53:22.433Z,97.30
2023-05-19T21:55:49.706Z,97.20
2023-05-19T21:58:17.091Z,97.20
2023-05-19T22:00:51.736Z,97.10
2023-05-19T22:03:19.472Z,97.40
2023-05-19T22:05:53.180Z,97.60
2023-05-19T22:08:21.098Z,97.60
2023-05-19T22:10:51.710Z,97.60
2023-05-19T22:13:19.225Z,97.50
2023-05-19T22:15:46.518Z,97.50
2023-05-19T22:18:13.616Z,97.50
2023-05-19T22:20:40.738Z,97.30
2023-05-19T22:23:07.788Z,97.30
2023-05-19T22:25:34.674Z,97.40
2023-05-19T22:28:01.693Z,97.60
2023-05-19T22:30:28.674Z,97.70
2023-05-19T22:32:55.788Z,97.70
2023-05-19T22:35:22.994Z,97.70
2023-05-19T22:37:49.774Z,97.90
2023-05-19T22:40:16.661Z,97.80
2023-05-19T22:42:43.726Z,97.90
2023-05-19T22:45:11.669Z,97.80
2023-05-19T22:47:39.213Z,97.90
2023-05-19T22:50:10.293Z,98.10
2023-05-19T22:52:37.559Z,97.80
2023-05-19T22:55:04.969Z,97.80
2023-05-19T22:57:32.265Z,97.70
2023-05-19T22:59:59.781Z,97.60
2023-05-19T23:02:26.770Z,97.50
2023-05-19T23:04:53.993Z,97.50
2023-05-19T23:07:21.372Z,97.50
2023-05-19T23:09:48.359Z,97.60
2023-05-19T23:12:15.461Z,97.50
2023-05-19T23:14:42.600Z,97.90
2023-05-19T23:17:10.031Z,97.50
2023-05-19T23:19:36.938Z,97.50
2023-05-19T23:22:04.361Z,97.30
2023-05-19T23:24:31.106Z,97.30
2023-05-19T23:26:58.147Z,97.20
2023-05-19T23:29:25.404Z,97.00
2023-05-19T23:31:52.852Z,96.90
2023-05-19T23:34:19.785Z,96.70
2023-05-19T23:36:46.984Z,96.20
2023-05-19T23:39:13.935Z,96.00
2023-05-19T23:41:41.220Z,96.20
2023-05-19T23:44:08.483Z,95.90
2023-05-19T23:46:35.548Z,96.00
2023-05-19T23:49:02.595Z,96.10
2023-05-19T23:51:29.785Z,96.10
2023-05-19T23:53:56.781Z,96.00
2023-05-19T23:56:24.080Z,96.20
2023-05-19T23:58:51.716Z,96.40
